Time;durP1;ratioP1;P1;durP2;ratioP2;P2;SDS_P1;SDS_P2;PMS_P1;PMS_P2;Temp;Humidity;BMP_temperature;BMP_pressure;BME280_temperature;BME280_humidity;BME280_pressure;Samples;Min_cycle;Max_cycle;Signal;HPM_P1;HPM_P2
2021/11/15 12:33:30;;;;;;;3.90;3.30;;;;;;;;;;5061039;23;20276;-78
2021/11/15 12:36:08;;;;;;;6.32;4.97;;;;;;;;;;4879661;29;20045;-77
2021/11/15 12:38:33;;;;;;;5.07;3.60;;;;;;;;;;4879770;29;20021;-77
2021/11/15 12:41:00;;;;;;;3.45;2.60;;;;;;;;;;4862858;29;20388;-77
2021/11/15 12:43:25;;;;;;;3.15;2.85;;;;;;;;;;4879780;29;20033;-76
2021/11/15 12:46:09;;;;;;;3.42;2.88;;;;;;;;;;4879299;29;20384;-74
2021/11/15 17:18:46;;;;;;;93.93;52.63;;;;;;;;;;4870903;29;20073;-76
2021/11/15 17:21:12;;;;;;;206.63;110.15;;;;;;;;;;4864327;29;20109;-76
2021/11/15 17:23:38;;;;;;;280.13;139.38;;;;;;;;;;4864087;29;20461;-80
2021/11/15 17:26:04;;;;;;;116.22;55.92;;;;;;;;;;4864119;29;20079;-75
2021/11/15 17:28:33;;;;;;;84.63;41.00;;;;;;;;;;4864158;29;20030;-79
2021/11/15 17:30:59;;;;;;;85.85;40.10;;;;;;;;;;4864200;29;20053;-81
2021/11/15 17:33:26;;;;;;;32.72;18.33;;;;;;;;;;4864015;29;20030;-80
2021/11/15 17:35:51;;;;;;;19.35;10.38;;;;;;;;;;4863782;29;20034;-79
2021/11/15 17:38:17;;;;;;;13.77;7.10;;;;;;;;;;4864172;29;20037;-78
2021/11/15 17:40:44;;;;;;;7.63;4.75;;;;;;;;;;4864306;29;20029;-80
2021/11/15 17:43:11;;;;;;;5.15;4.43;;;;;;;;;;4863998;29;20350;-77
2021/11/15 17:45:39;;;;;;;6.82;5.25;;;;;;;;;;4863657;29;20029;-80
2021/11/15 17:48:06;;;;;;;4.95;4.40;;;;;;;;;;4862564;29;20040;-77
2021/11/15 17:50:40;;;;;;;6.63;4.55;;;;;;;;;;4862666;29;20033;-78
2021/11/15 17:53:08;;;;;;;8.02;5.43;;;;;;;;;;4863641;29;20029;-78
2021/11/15 17:55:41;;;;;;;6.80;4.75;;;;;;;;;;4863719;29;20048;-78
2021/11/15 17:58:22;;;;;;;9.40;7.63;;;;;;;;;;4863880;29;20033;-78
2021/11/15 18:00:49;;;;;;;8.27;5.47;;;;;;;;;;4863401;29;20048;-78
2021/11/15 18:03:15;;;;;;;6.82;5.95;;;;;;;;;;4863681;29;20036;-78
2021/11/15 18:05:41;;;;;;;8.73;6.25;;;;;;;;;;4863260;29;20033;-77
2021/11/15 18:08:07;;;;;;;8.88;6.93;;;;;;;;;;4863650;29;20032;-77
2021/11/15 18:10:32;;;;;;;11.68;7.60;;;;;;;;;;4863646;29;20035;-79
2021/11/15 18:12:58;;;;;;;6.78;5.75;;;;;;;;;;4863306;29;20038;-78
2021/11/15 18:15:28;;;;;;;6.65;4.80;;;;;;;;;;4863214;29;20082;-78
2021/11/15 18:17:55;;;;;;;5.93;4.75;;;;;;;;;;4879579;29;20385;-78
2021/11/15 18:20:21;;;;;;;5.78;4.80;;;;;;;;;;4881721;29;20032;-78
2021/11/15 18:22:47;;;;;;;8.40;6.63;;;;;;;;;;4881881;29;20418;-78
2021/11/15 18:25:14;;;;;;;11.23;8.45;;;;;;;;;;4881731;29;20136;-80
2021/11/15 18:27:40;;;;;;;9.32;7.07;;;;;;;;;;4881944;29;20085;-79
2021/11/15 18:30:11;;;;;;;9.68;5.85;;;;;;;;;;4881564;29;20032;-79
2021/11/15 18:32:38;;;;;;;5.78;4.80;;;;;;;;;;4882398;29;20421;-80
2021/11/15 18:35:05;;;;;;;5.18;4.53;;;;;;;;;;4881310;29;20029;-79
2021/11/15 18:37:30;;;;;;;6.50;4.55;;;;;;;;;;4881559;29;20040;-78
2021/11/15 18:39:56;;;;;;;8.95;6.80;;;;;;;;;;4881330;29;20084;-78
2021/11/15 18:42:23;;;;;;;9.15;6.40;;;;;;;;;;4881285;29;20029;-78
2021/11/15 18:44:52;;;;;;;9.00;6.68;;;;;;;;;;4881224;29;20036;-79
2021/11/15 18:47:20;;;;;;;11.63;6.45;;;;;;;;;;4881255;29;20063;-79
2021/11/15 18:49:48;;;;;;;9.90;7.78;;;;;;;;;;4881378;29;20041;-79
2021/11/15 18:52:17;;;;;;;7.25;6.43;;;;;;;;;;4881661;29;20040;-78
2021/11/15 18:54:42;;;;;;;6.97;5.30;;;;;;;;;;4881046;29;20036;-79
2021/11/15 18:57:08;;;;;;;8.85;6.43;;;;;;;;;;4881117;29;20380;-79
2021/11/15 18:59:34;;;;;;;7.82;5.82;;;;;;;;;;4880663;29;20084;-78
2021/11/15 19:02:02;;;;;;;9.30;5.75;;;;;;;;;;4881097;29;20057;-78
2021/11/15 19:04:29;;;;;;;6.07;5.30;;;;;;;;;;4880841;29;20532;-76
2021/11/15 19:06:58;;;;;;;6.57;5.20;;;;;;;;;;4880739;29;20037;-79
2021/11/15 19:09:24;;;;;;;9.93;8.65;;;;;;;;;;4881104;29;20056;-79
2021/11/15 19:12:13;;;;;;;7.32;5.55;;;;;;;;;;4880860;29;20369;-79
2021/11/15 19:14:39;;;;;;;6.10;4.95;;;;;;;;;;4880118;29;20040;-78
2021/11/15 19:17:05;;;;;;;6.35;5.70;;;;;;;;;;4881038;29;20526;-78
2021/11/15 19:19:32;;;;;;;8.98;5.60;;;;;;;;;;4880632;29;20084;-78
2021/11/15 19:21:58;;;;;;;7.32;6.45;;;;;;;;;;4880931;29;20029;-79
2021/11/15 19:24:23;;;;;;;8.00;6.50;;;;;;;;;;4880453;29;20021;-79
2021/11/15 19:26:55;;;;;;;7.60;6.30;;;;;;;;;;4880739;29;20085;-78
2021/11/15 19:29:21;;;;;;;7.07;6.13;;;;;;;;;;4880659;29;20029;-79
2021/11/15 19:31:49;;;;;;;6.70;5.53;;;;;;;;;;4880615;29;20072;-79
2021/11/15 19:34:16;;;;;;;8.52;6.55;;;;;;;;;;4880344;29;20029;-78
2021/11/15 19:36:42;;;;;;;8.52;6.68;;;;;;;;;;4880627;29;20021;-77
2021/11/15 19:39:12;;;;;;;11.38;7.85;;;;;;;;;;4880632;29;20040;-78
2021/11/15 19:41:40;;;;;;;13.00;10.50;;;;;;;;;;4880406;29;20033;-77
2021/11/15 19:44:10;;;;;;;13.50;9.10;;;;;;;;;;4880468;29;20029;-79
2021/11/15 19:46:36;;;;;;;10.15;8.50;;;;;;;;;;4880211;29;20037;-77
2021/11/15 19:49:02;;;;;;;9.50;7.50;;;;;;;;;;4880422;29;20059;-77
2021/11/15 19:51:31;;;;;;;8.93;7.85;;;;;;;;;;4880082;29;20392;-78
2021/11/15 19:53:57;;;;;;;9.43;6.70;;;;;;;;;;4880004;29;20111;-78
2021/11/15 19:56:24;;;;;;;11.93;8.50;;;;;;;;;;4880280;29;20116;-77
2021/11/15 19:58:50;;;;;;;12.25;7.20;;;;;;;;;;4880002;29;20040;-79
2021/11/15 20:01:16;;;;;;;10.32;6.78;;;;;;;;;;4880194;29;20025;-79
2021/11/15 20:03:42;;;;;;;8.48;6.88;;;;;;;;;;4880094;29;20029;-78
2021/11/15 20:06:08;;;;;;;10.00;7.25;;;;;;;;;;4880199;29;20060;-79
2021/11/15 20:08:33;;;;;;;10.82;8.23;;;;;;;;;;4880070;29;20393;-79
2021/11/15 20:11:01;;;;;;;10.30;7.18;;;;;;;;;;4877999;29;20040;-79
2021/11/15 20:13:27;;;;;;;8.18;6.38;;;;;;;;;;4879953;29;20123;-77
2021/11/15 20:15:54;;;;;;;10.63;7.40;;;;;;;;;;4879719;29;20045;-79
2021/11/15 20:18:21;;;;;;;9.50;8.32;;;;;;;;;;4879473;29;20131;-79
2021/11/15 20:20:47;;;;;;;8.13;6.45;;;;;;;;;;4863533;29;20026;-79
2021/11/15 20:23:13;;;;;;;8.13;5.82;;;;;;;;;;4879894;29;20488;-78
2021/11/15 20:25:39;;;;;;;9.05;6.20;;;;;;;;;;4879770;29;20029;-78
2021/11/15 20:28:06;;;;;;;7.72;6.60;;;;;;;;;;4879708;29;20048;-78
2021/11/15 20:30:34;;;;;;;8.77;7.50;;;;;;;;;;4880010;29;20515;-79
2021/11/15 20:33:01;;;;;;;9.43;7.78;;;;;;;;;;4879896;29;20124;-77
2021/11/15 20:35:28;;;;;;;10.32;7.13;;;;;;;;;;4879738;29;20029;-78
2021/11/15 20:37:54;;;;;;;8.13;7.03;;;;;;;;;;4879678;29;20081;-77
2021/11/15 20:40:21;;;;;;;10.52;8.15;;;;;;;;;;4879939;29;20465;-78
2021/11/15 20:42:48;;;;;;;11.93;8.02;;;;;;;;;;4880557;29;20025;-87
2021/11/15 20:45:16;;;;;;;8.98;7.07;;;;;;;;;;4879835;29;20499;-79
2021/11/15 20:47:41;;;;;;;15.77;9.45;;;;;;;;;;4879477;29;20071;-80
2021/11/15 20:50:10;;;;;;;11.60;8.10;;;;;;;;;;4879655;29;20057;-79
2021/11/15 20:52:37;;;;;;;10.20;7.22;;;;;;;;;;4879695;29;20039;-79
2021/11/15 20:55:08;;;;;;;8.68;6.38;;;;;;;;;;4879383;29;20025;-78
2021/11/15 20:57:34;;;;;;;7.85;6.05;;;;;;;;;;4879472;29;20045;-79
2021/11/15 20:59:59;;;;;;;22.67;14.40;;;;;;;;;;4879524;29;20028;-79
2021/11/15 21:02:25;;;;;;;11.25;8.63;;;;;;;;;;4880974;29;20060;-77
2021/11/15 21:04:50;;;;;;;8.05;6.82;;;;;;;;;;4879313;29;20581;-76
2021/11/15 21:07:16;;;;;;;11.40;8.02;;;;;;;;;;4880283;29;20029;-81
2021/11/15 21:09:41;;;;;;;6.55;5.35;;;;;;;;;;4884474;29;20468;-82
2021/11/15 21:12:07;;;;;;;7.80;6.28;;;;;;;;;;4878834;29;20072;-78
2021/11/15 21:14:33;;;;;;;9.75;6.50;;;;;;;;;;4878611;29;20385;-77
2021/11/15 21:17:00;;;;;;;10.68;7.18;;;;;;;;;;4894942;29;20184;-77
2021/11/15 21:19:27;;;;;;;9.10;6.78;;;;;;;;;;4879315;29;20049;-78
2021/11/15 21:21:58;;;;;;;8.95;6.05;;;;;;;;;;4879842;29;20119;-78
2021/11/15 21:24:24;;;;;;;8.68;6.05;;;;;;;;;;4882772;29;20187;-78
2021/11/15 21:26:51;;;;;;;10.45;5.95;;;;;;;;;;4882748;29;20152;-79
2021/11/15 21:29:17;;;;;;;8.48;5.50;;;;;;;;;;4882897;29;20025;-78
2021/11/15 21:31:42;;;;;;;5.88;5.22;;;;;;;;;;4882593;29;20084;-78
2021/11/15 21:34:09;;;;;;;6.40;5.32;;;;;;;;;;4882705;29;20025;-79
2021/11/15 21:36:35;;;;;;;6.30;5.07;;;;;;;;;;4882659;29;20029;-79
2021/11/15 21:39:04;;;;;;;11.57;6.63;;;;;;;;;;4882763;29;20032;-79
2021/11/15 21:41:30;;;;;;;9.18;5.75;;;;;;;;;;4882632;29;20029;-79
2021/11/15 21:43:55;;;;;;;6.63;5.75;;;;;;;;;;4882403;29;20032;-79
2021/11/15 21:46:21;;;;;;;7.47;6.05;;;;;;;;;;4882544;29;20029;-78
2021/11/15 21:48:46;;;;;;;8.45;6.28;;;;;;;;;;4882413;29;20361;-78
2021/11/15 21:51:12;;;;;;;9.63;6.90;;;;;;;;;;4882552;29;20104;-77
2021/11/15 21:53:37;;;;;;;7.40;5.28;;;;;;;;;;4882431;29;20053;-76
2021/11/15 21:56:03;;;;;;;7.68;6.07;;;;;;;;;;4882488;29;20033;-76
2021/11/15 21:58:29;;;;;;;7.80;5.70;;;;;;;;;;4882116;29;20043;-77
2021/11/15 22:00:59;;;;;;;8.30;6.55;;;;;;;;;;4865480;29;20060;-77
2021/11/15 22:03:26;;;;;;;7.88;5.78;;;;;;;;;;4882409;29;20111;-75
2021/11/15 22:05:53;;;;;;;9.23;6.78;;;;;;;;;;4865105;29;20088;-77
2021/11/15 22:08:29;;;;;;;9.95;6.97;;;;;;;;;;4865522;29;20437;-75
2021/11/15 22:10:59;;;;;;;8.25;6.82;;;;;;;;;;4881975;29;20029;-76
2021/11/15 22:13:26;;;;;;;;;;;;;;;;;;4882371;29;20029;-78
2021/11/15 22:15:53;;;;;;;8.73;6.32;;;;;;;;;;4881923;29;19920;-74
2021/11/15 22:18:23;;;;;;;8.43;6.22;;;;;;;;;;4881853;29;20209;-76
2021/11/15 22:20:48;;;;;;;;;;;;;;;;;;4882250;29;20025;-75
2021/11/15 22:23:47;;;;;;;10.80;6.82;;;;;;;;;;4881876;29;20290;-75
2021/11/15 22:26:14;;;;;;;7.20;5.68;;;;;;;;;;4881495;29;20044;-76
2021/11/15 22:28:39;;;;;;;7.10;5.32;;;;;;;;;;4881663;29;20022;-75
2021/11/15 22:31:05;;;;;;;5.88;5.15;;;;;;;;;;4881731;29;20495;-75
2021/11/15 22:33:31;;;;;;;7.35;6.28;;;;;;;;;;4881026;29;20048;-75
2021/11/15 22:35:56;;;;;;;7.57;5.82;;;;;;;;;;4881394;29;20473;-76
2021/11/15 22:38:23;;;;;;;7.60;5.25;;;;;;;;;;4881727;29;20029;-77
2021/11/15 22:40:50;;;;;;;7.80;5.70;;;;;;;;;;4881628;29;20033;-76
2021/11/15 22:43:16;;;;;;;7.22;6.00;;;;;;;;;;4881562;29;20032;-77
2021/11/15 22:45:42;;;;;;;9.50;6.75;;;;;;;;;;4881422;29;20405;-75
2021/11/15 22:48:08;;;;;;;9.23;6.28;;;;;;;;;;4881156;29;20067;-77
2021/11/15 22:50:34;;;;;;;7.07;5.80;;;;;;;;;;4881185;29;20028;-77
2021/11/15 22:53:00;;;;;;;8.73;6.10;;;;;;;;;;4881355;29;20167;-77
2021/11/15 22:55:25;;;;;;;7.20;5.47;;;;;;;;;;4881101;29;20104;-76
2021/11/15 22:57:52;;;;;;;8.98;6.63;;;;;;;;;;4881582;29;20059;-75
2021/11/15 23:00:21;;;;;;;7.60;5.63;;;;;;;;;;4864253;29;20469;-75
